ENBN/BNN METAR and TAF weather

Enter ICAO airport designator
Station Type Date Time Source
ENBN METAR 2022/08/12 14:50 UTC NOAA

ENBN 121450Z 24009KT 220V280 9999 FEW017 SCT025 BKN060 13/09 Q1024


Station Type Date Time Source
ENBN Decoded METAR 2022/08/12 14:50 UTC NOAA

Bronnoysund / Bronnoy, Norway (ENBN) 65-28N 012-13E 9M
Aug 12, 2022 - 10:50 AM EDT / 2022.08.12 1450 UTC
Wind: from the WSW (240 degrees) at 10 MPH (9 KT) (direction variable):0
Visibility: greater than 7 mile(s):0
Sky conditions: mostly cloudy
Temperature: 55 F (13 C)
Dew Point: 48 F (9 C)
Relative Humidity: 76%
Pressure (altimeter): 30.24 in. Hg (1024 hPa)
ob: ENBN 121450Z 24009KT 220V280 9999 FEW017 SCT025 BKN060 13/09 Q1024
cycle: 15

Station Type Date Time Source
ENBN TAF 2011/03/27 18:12 UTC NOAA

TAF TAF ENBN 261700Z 2618/2718 CNL

Example: see airport list